sensor_id;sensor_type;location;lat;lon;timestamp;P1;durP1;ratioP1;P2;durP2;ratioP2
68234;SDS011;55052;52.056;5.296;2023-02-28T00:00:35;5.57;;;2.58;;
68234;SDS011;55052;52.056;5.296;2023-02-28T00:03:03;7.18;;;3.13;;
68234;SDS011;55052;52.056;5.296;2023-02-28T00:05:31;5.55;;;2.65;;
68234;SDS011;55052;52.056;5.296;2023-02-28T00:07:57;5.45;;;2.88;;
68234;SDS011;55052;52.056;5.296;2023-02-28T00:10:25;6.32;;;2.88;;
68234;SDS011;55052;52.056;5.296;2023-02-28T00:12:54;5.30;;;2.80;;
68234;SDS011;55052;52.056;5.296;2023-02-28T00:15:25;6.38;;;3.10;;
68234;SDS011;55052;52.056;5.296;2023-02-28T00:17:52;5.75;;;3.20;;
68234;SDS011;55052;52.056;5.296;2023-02-28T00:20:19;7.45;;;3.05;;
68234;SDS011;55052;52.056;5.296;2023-02-28T00:22:48;5.45;;;2.90;;
68234;SDS011;55052;52.056;5.296;2023-02-28T00:25:17;6.13;;;3.03;;
68234;SDS011;55052;52.056;5.296;2023-02-28T00:30:17;8.55;;;3.28;;
68234;SDS011;55052;52.056;5.296;2023-02-28T00:32:46;12.15;;;3.70;;
68234;SDS011;55052;52.056;5.296;2023-02-28T00:35:13;5.22;;;2.88;;
68234;SDS011;55052;52.056;5.296;2023-02-28T00:37:41;6.28;;;2.95;;
68234;SDS011;55052;52.056;5.296;2023-02-28T00:40:08;4.50;;;2.70;;
68234;SDS011;55052;52.056;5.296;2023-02-28T00:42:37;8.18;;;3.17;;
68234;SDS011;55052;52.056;5.296;2023-02-28T00:45:04;5.93;;;2.90;;
68234;SDS011;55052;52.056;5.296;2023-02-28T00:47:32;8.15;;;3.45;;
68234;SDS011;55052;52.056;5.296;2023-02-28T00:49:59;6.72;;;3.30;;
68234;SDS011;55052;52.056;5.296;2023-02-28T00:52:26;7.25;;;3.25;;
68234;SDS011;55052;52.056;5.296;2023-02-28T00:54:53;6.25;;;3.10;;
68234;SDS011;55052;52.056;5.296;2023-02-28T00:57:20;6.63;;;3.17;;
68234;SDS011;55052;52.056;5.296;2023-02-28T00:59:47;5.97;;;3.10;;
68234;SDS011;55052;52.056;5.296;2023-02-28T01:02:14;7.35;;;2.92;;
68234;SDS011;55052;52.056;5.296;2023-02-28T01:04:41;5.85;;;3.03;;
68234;SDS011;55052;52.056;5.296;2023-02-28T01:07:08;5.63;;;3.20;;
68234;SDS011;55052;52.056;5.296;2023-02-28T01:09:35;6.82;;;3.53;;
68234;SDS011;55052;52.056;5.296;2023-02-28T01:12:02;6.70;;;2.90;;
68234;SDS011;55052;52.056;5.296;2023-02-28T01:14:29;5.72;;;2.97;;
68234;SDS011;55052;52.056;5.296;2023-02-28T01:16:55;5.25;;;3.17;;
68234;SDS011;55052;52.056;5.296;2023-02-28T01:19:22;6.97;;;3.00;;
68234;SDS011;55052;52.056;5.296;2023-02-28T01:21:49;5.97;;;3.00;;
68234;SDS011;55052;52.056;5.296;2023-02-28T01:24:16;5.05;;;3.28;;
68234;SDS011;55052;52.056;5.296;2023-02-28T01:26:42;6.07;;;2.92;;
68234;SDS011;55052;52.056;5.296;2023-02-28T01:29:09;6.35;;;3.17;;
68234;SDS011;55052;52.056;5.296;2023-02-28T01:31:36;6.82;;;3.20;;
68234;SDS011;55052;52.056;5.296;2023-02-28T01:34:03;7.20;;;3.25;;
68234;SDS011;55052;52.056;5.296;2023-02-28T01:36:30;10.32;;;3.17;;
68234;SDS011;55052;52.056;5.296;2023-02-28T01:38:56;4.80;;;2.85;;
68234;SDS011;55052;52.056;5.296;2023-02-28T01:41:24;7.20;;;3.42;;
68234;SDS011;55052;52.056;5.296;2023-02-28T01:46:23;9.63;;;3.30;;
68234;SDS011;55052;52.056;5.296;2023-02-28T01:48:51;7.13;;;3.33;;
68234;SDS011;55052;52.056;5.296;2023-02-28T01:54:00;6.03;;;2.78;;
68234;SDS011;55052;52.056;5.296;2023-02-28T01:56:32;9.55;;;3.42;;
68234;SDS011;55052;52.056;5.296;2023-02-28T01:59:02;8.05;;;2.90;;
68234;SDS011;55052;52.056;5.296;2023-02-28T02:01:30;5.88;;;3.20;;
68234;SDS011;55052;52.056;5.296;2023-02-28T02:03:59;6.32;;;3.28;;
68234;SDS011;55052;52.056;5.296;2023-02-28T02:06:29;6.63;;;3.40;;
68234;SDS011;55052;52.056;5.296;2023-02-28T02:09:17;5.93;;;3.55;;
68234;SDS011;55052;52.056;5.296;2023-02-28T02:11:43;6.97;;;3.17;;
68234;SDS011;55052;52.056;5.296;2023-02-28T02:14:21;9.02;;;3.33;;
68234;SDS011;55052;52.056;5.296;2023-02-28T02:33:41;6.20;;;3.40;;
68234;SDS011;55052;52.056;5.296;2023-02-28T02:36:27;5.85;;;3.30;;
68234;SDS011;55052;52.056;5.296;2023-02-28T02:39:18;4.82;;;2.83;;
68234;SDS011;55052;52.056;5.296;2023-02-28T02:42:08;10.15;;;2.90;;
68234;SDS011;55052;52.056;5.296;2023-02-28T02:44:43;6.10;;;3.17;;
68234;SDS011;55052;52.056;5.296;2023-02-28T02:47:20;7.13;;;2.90;;
68234;SDS011;55052;52.056;5.296;2023-02-28T02:49:52;8.70;;;3.30;;
68234;SDS011;55052;52.056;5.296;2023-02-28T02:54:50;5.97;;;3.50;;
68234;SDS011;55052;52.056;5.296;2023-02-28T02:57:25;6.53;;;3.38;;
68234;SDS011;55052;52.056;5.296;2023-02-28T02:59:58;5.32;;;3.20;;
68234;SDS011;55052;52.056;5.296;2023-02-28T03:02:26;5.20;;;3.03;;
68234;SDS011;55052;52.056;5.296;2023-02-28T03:05:01;7.38;;;3.47;;
68234;SDS011;55052;52.056;5.296;2023-02-28T03:07:32;5.95;;;3.22;;
68234;SDS011;55052;52.056;5.296;2023-02-28T03:09:59;5.90;;;3.28;;
68234;SDS011;55052;52.056;5.296;2023-02-28T03:12:33;6.47;;;3.35;;
68234;SDS011;55052;52.056;5.296;2023-02-28T03:15:24;6.82;;;3.22;;
68234;SDS011;55052;52.056;5.296;2023-02-28T03:18:03;5.68;;;3.03;;
68234;SDS011;55052;52.056;5.296;2023-02-28T03:20:51;5.65;;;3.15;;
68234;SDS011;55052;52.056;5.296;2023-02-28T03:23:36;6.93;;;3.33;;
68234;SDS011;55052;52.056;5.296;2023-02-28T03:26:27;6.13;;;3.05;;
68234;SDS011;55052;52.056;5.296;2023-02-28T03:34:53;5.43;;;3.33;;
68234;SDS011;55052;52.056;5.296;2023-02-28T03:37:26;5.80;;;2.92;;
68234;SDS011;55052;52.056;5.296;2023-02-28T03:39:57;6.10;;;3.22;;
68234;SDS011;55052;52.056;5.296;2023-02-28T03:42:36;7.85;;;3.60;;
68234;SDS011;55052;52.056;5.296;2023-02-28T03:45:05;8.02;;;3.55;;
68234;SDS011;55052;52.056;5.296;2023-02-28T03:47:39;5.90;;;3.22;;
68234;SDS011;55052;52.056;5.296;2023-02-28T03:50:17;5.68;;;3.40;;
68234;SDS011;55052;52.056;5.296;2023-02-28T03:53:00;6.22;;;3.20;;
68234;SDS011;55052;52.056;5.296;2023-02-28T03:55:37;6.72;;;3.50;;
68234;SDS011;55052;52.056;5.296;2023-02-28T03:58:37;8.00;;;2.88;;
68234;SDS011;55052;52.056;5.296;2023-02-28T04:01:23;5.00;;;3.30;;
68234;SDS011;55052;52.056;5.296;2023-02-28T04:04:12;6.00;;;3.58;;
68234;SDS011;55052;52.056;5.296;2023-02-28T04:06:40;8.30;;;3.60;;
68234;SDS011;55052;52.056;5.296;2023-02-28T04:09:09;7.70;;;3.72;;
68234;SDS011;55052;52.056;5.296;2023-02-28T04:11:40;6.35;;;3.53;;
68234;SDS011;55052;52.056;5.296;2023-02-28T04:14:08;6.10;;;3.50;;
68234;SDS011;55052;52.056;5.296;2023-02-28T04:16:37;8.35;;;3.90;;
68234;SDS011;55052;52.056;5.296;2023-02-28T04:19:06;9.38;;;4.05;;
68234;SDS011;55052;52.056;5.296;2023-02-28T04:21:35;8.07;;;3.80;;
68234;SDS011;55052;52.056;5.296;2023-02-28T04:24:07;8.35;;;4.30;;
68234;SDS011;55052;52.056;5.296;2023-02-28T04:26:43;7.25;;;3.80;;
68234;SDS011;55052;52.056;5.296;2023-02-28T04:29:13;8.93;;;3.95;;
68234;SDS011;55052;52.056;5.296;2023-02-28T04:31:44;11.05;;;3.78;;
68234;SDS011;55052;52.056;5.296;2023-02-28T04:34:11;7.47;;;3.83;;
68234;SDS011;55052;52.056;5.296;2023-02-28T04:36:38;5.88;;;3.38;;
68234;SDS011;55052;52.056;5.296;2023-02-28T04:39:04;5.85;;;3.45;;
68234;SDS011;55052;52.056;5.296;2023-02-28T04:41:31;6.38;;;3.53;;
68234;SDS011;55052;52.056;5.296;2023-02-28T04:43:59;7.28;;;3.85;;
68234;SDS011;55052;52.056;5.296;2023-02-28T04:46:25;6.22;;;3.63;;
68234;SDS011;55052;52.056;5.296;2023-02-28T04:48:52;4.97;;;3.38;;
68234;SDS011;55052;52.056;5.296;2023-02-28T04:51:20;7.28;;;3.60;;
68234;SDS011;55052;52.056;5.296;2023-02-28T04:53:47;6.60;;;3.80;;
68234;SDS011;55052;52.056;5.296;2023-02-28T04:56:15;6.85;;;3.65;;
68234;SDS011;55052;52.056;5.296;2023-02-28T04:58:43;6.82;;;3.50;;
68234;SDS011;55052;52.056;5.296;2023-02-28T05:01:21;9.25;;;3.90;;
68234;SDS011;55052;52.056;5.296;2023-02-28T05:03:54;6.30;;;3.58;;
68234;SDS011;55052;52.056;5.296;2023-02-28T05:06:23;5.50;;;3.60;;
68234;SDS011;55052;52.056;5.296;2023-02-28T05:08:51;6.50;;;3.53;;
68234;SDS011;55052;52.056;5.296;2023-02-28T05:11:20;5.45;;;3.40;;
68234;SDS011;55052;52.056;5.296;2023-02-28T05:13:49;5.82;;;3.35;;
68234;SDS011;55052;52.056;5.296;2023-02-28T05:16:16;6.82;;;3.50;;
68234;SDS011;55052;52.056;5.296;2023-02-28T05:18:44;6.93;;;3.50;;
68234;SDS011;55052;52.056;5.296;2023-02-28T05:21:25;6.15;;;3.10;;
68234;SDS011;55052;52.056;5.296;2023-02-28T05:23:52;6.03;;;3.53;;
68234;SDS011;55052;52.056;5.296;2023-02-28T05:26:20;8.25;;;3.78;;
68234;SDS011;55052;52.056;5.296;2023-02-28T05:28:47;5.68;;;3.22;;
68234;SDS011;55052;52.056;5.296;2023-02-28T05:31:13;6.25;;;3.42;;
68234;SDS011;55052;52.056;5.296;2023-02-28T05:33:40;5.90;;;3.20;;
68234;SDS011;55052;52.056;5.296;2023-02-28T05:36:07;6.75;;;3.90;;
68234;SDS011;55052;52.056;5.296;2023-02-28T05:38:34;5.85;;;3.65;;
68234;SDS011;55052;52.056;5.296;2023-02-28T05:41:07;4.97;;;3.40;;
68234;SDS011;55052;52.056;5.296;2023-02-28T05:43:35;6.38;;;3.38;;
68234;SDS011;55052;52.056;5.296;2023-02-28T05:46:06;8.13;;;3.78;;
68234;SDS011;55052;52.056;5.296;2023-02-28T05:48:35;6.18;;;3.78;;
68234;SDS011;55052;52.056;5.296;2023-02-28T05:51:04;6.35;;;3.78;;
68234;SDS011;55052;52.056;5.296;2023-02-28T05:53:31;7.43;;;3.53;;
68234;SDS011;55052;52.056;5.296;2023-02-28T05:55:58;7.00;;;3.78;;
68234;SDS011;55052;52.056;5.296;2023-02-28T05:58:26;6.18;;;3.67;;
68234;SDS011;55052;52.056;5.296;2023-02-28T06:00:57;6.10;;;3.40;;
68234;SDS011;55052;52.056;5.296;2023-02-28T06:03:27;6.50;;;3.45;;
68234;SDS011;55052;52.056;5.296;2023-02-28T06:05:54;5.38;;;3.38;;
68234;SDS011;55052;52.056;5.296;2023-02-28T06:08:21;6.32;;;3.47;;
68234;SDS011;55052;52.056;5.296;2023-02-28T06:10:48;6.70;;;4.00;;
68234;SDS011;55052;52.056;5.296;2023-02-28T06:13:15;5.88;;;3.63;;
68234;SDS011;55052;52.056;5.296;2023-02-28T06:15:41;6.72;;;3.63;;
68234;SDS011;55052;52.056;5.296;2023-02-28T06:18:08;7.53;;;3.70;;
68234;SDS011;55052;52.056;5.296;2023-02-28T06:20:35;7.60;;;4.22;;
68234;SDS011;55052;52.056;5.296;2023-02-28T06:23:02;7.32;;;4.03;;
68234;SDS011;55052;52.056;5.296;2023-02-28T06:25:29;6.40;;;3.40;;
68234;SDS011;55052;52.056;5.296;2023-02-28T06:27:56;14.02;;;4.03;;
68234;SDS011;55052;52.056;5.296;2023-02-28T06:30:23;8.98;;;3.55;;
68234;SDS011;55052;52.056;5.296;2023-02-28T06:32:53;8.05;;;3.80;;
68234;SDS011;55052;52.056;5.296;2023-02-28T06:35:20;6.03;;;3.28;;
68234;SDS011;55052;52.056;5.296;2023-02-28T06:37:48;6.30;;;4.00;;
68234;SDS011;55052;52.056;5.296;2023-02-28T06:40:14;6.47;;;4.10;;
68234;SDS011;55052;52.056;5.296;2023-02-28T06:42:41;5.47;;;3.47;;
68234;SDS011;55052;52.056;5.296;2023-02-28T06:45:10;9.15;;;4.25;;
68234;SDS011;55052;52.056;5.296;2023-02-28T06:47:38;6.63;;;3.55;;
68234;SDS011;55052;52.056;5.296;2023-02-28T06:50:06;7.50;;;4.05;;
68234;SDS011;55052;52.056;5.296;2023-02-28T06:52:37;9.68;;;4.07;;
68234;SDS011;55052;52.056;5.296;2023-02-28T06:55:05;6.82;;;3.90;;
68234;SDS011;55052;52.056;5.296;2023-02-28T06:57:34;6.25;;;3.50;;
68234;SDS011;55052;52.056;5.296;2023-02-28T07:00:04;7.47;;;3.90;;
68234;SDS011;55052;52.056;5.296;2023-02-28T07:02:37;6.43;;;3.83;;
68234;SDS011;55052;52.056;5.296;2023-02-28T07:07:31;8.88;;;3.78;;
68234;SDS011;55052;52.056;5.296;2023-02-28T07:09:58;6.35;;;3.80;;
68234;SDS011;55052;52.056;5.296;2023-02-28T07:12:25;5.93;;;3.33;;
68234;SDS011;55052;52.056;5.296;2023-02-28T07:14:52;5.93;;;3.60;;
68234;SDS011;55052;52.056;5.296;2023-02-28T07:17:20;7.43;;;4.05;;
68234;SDS011;55052;52.056;5.296;2023-02-28T07:19:47;6.72;;;4.40;;
68234;SDS011;55052;52.056;5.296;2023-02-28T07:22:14;5.57;;;3.80;;
68234;SDS011;55052;52.056;5.296;2023-02-28T07:24:41;7.97;;;4.13;;
68234;SDS011;55052;52.056;5.296;2023-02-28T07:27:08;7.68;;;3.88;;
68234;SDS011;55052;52.056;5.296;2023-02-28T07:29:34;6.30;;;3.70;;
68234;SDS011;55052;52.056;5.296;2023-02-28T07:32:01;9.40;;;4.03;;
68234;SDS011;55052;52.056;5.296;2023-02-28T07:34:28;10.00;;;4.15;;
68234;SDS011;55052;52.056;5.296;2023-02-28T07:36:55;6.78;;;3.40;;
68234;SDS011;55052;52.056;5.296;2023-02-28T07:39:22;6.93;;;3.80;;
68234;SDS011;55052;52.056;5.296;2023-02-28T07:41:49;7.22;;;4.07;;
68234;SDS011;55052;52.056;5.296;2023-02-28T07:44:15;7.78;;;3.60;;
68234;SDS011;55052;52.056;5.296;2023-02-28T07:46:42;5.47;;;3.42;;
68234;SDS011;55052;52.056;5.296;2023-02-28T07:49:09;6.60;;;3.58;;
68234;SDS011;55052;52.056;5.296;2023-02-28T07:51:36;7.60;;;3.92;;
68234;SDS011;55052;52.056;5.296;2023-02-28T07:54:04;8.05;;;3.92;;
68234;SDS011;55052;52.056;5.296;2023-02-28T07:56:31;8.38;;;4.15;;
68234;SDS011;55052;52.056;5.296;2023-02-28T07:58:58;6.13;;;3.80;;
68234;SDS011;55052;52.056;5.296;2023-02-28T08:01:25;6.18;;;3.88;;
68234;SDS011;55052;52.056;5.296;2023-02-28T08:03:51;6.55;;;3.70;;
68234;SDS011;55052;52.056;5.296;2023-02-28T08:06:21;6.88;;;3.63;;
68234;SDS011;55052;52.056;5.296;2023-02-28T08:08:49;4.38;;;3.10;;
68234;SDS011;55052;52.056;5.296;2023-02-28T08:11:17;7.25;;;3.60;;
68234;SDS011;55052;52.056;5.296;2023-02-28T08:13:45;5.95;;;3.45;;
68234;SDS011;55052;52.056;5.296;2023-02-28T08:16:12;5.45;;;3.40;;
68234;SDS011;55052;52.056;5.296;2023-02-28T08:18:43;5.72;;;3.47;;
68234;SDS011;55052;52.056;5.296;2023-02-28T08:21:10;7.57;;;3.33;;
68234;SDS011;55052;52.056;5.296;2023-02-28T08:23:37;5.45;;;3.70;;
68234;SDS011;55052;52.056;5.296;2023-02-28T08:26:05;7.25;;;3.45;;
68234;SDS011;55052;52.056;5.296;2023-02-28T08:28:31;8.20;;;3.75;;
68234;SDS011;55052;52.056;5.296;2023-02-28T08:30:59;5.72;;;3.38;;
68234;SDS011;55052;52.056;5.296;2023-02-28T08:33:26;5.40;;;3.58;;
68234;SDS011;55052;52.056;5.296;2023-02-28T08:35:56;7.00;;;3.60;;
68234;SDS011;55052;52.056;5.296;2023-02-28T08:38:23;6.00;;;3.28;;
68234;SDS011;55052;52.056;5.296;2023-02-28T08:40:56;8.57;;;3.55;;
68234;SDS011;55052;52.056;5.296;2023-02-28T08:43:28;8.40;;;3.70;;
68234;SDS011;55052;52.056;5.296;2023-02-28T08:45:55;4.93;;;3.58;;
68234;SDS011;55052;52.056;5.296;2023-02-28T08:48:26;6.45;;;3.70;;
68234;SDS011;55052;52.056;5.296;2023-02-28T08:50:55;6.97;;;3.92;;
68234;SDS011;55052;52.056;5.296;2023-02-28T08:53:34;7.22;;;3.80;;
68234;SDS011;55052;52.056;5.296;2023-02-28T08:56:04;5.78;;;3.60;;
68234;SDS011;55052;52.056;5.296;2023-02-28T08:58:35;5.10;;;3.40;;
68234;SDS011;55052;52.056;5.296;2023-02-28T09:01:35;5.60;;;3.30;;
68234;SDS011;55052;52.056;5.296;2023-02-28T09:03:56;6.57;;;3.60;;
68234;SDS011;55052;52.056;5.296;2023-02-28T09:06:24;6.03;;;3.65;;
68234;SDS011;55052;52.056;5.296;2023-02-28T09:08:53;5.88;;;3.50;;
68234;SDS011;55052;52.056;5.296;2023-02-28T09:11:24;5.50;;;3.40;;
68234;SDS011;55052;52.056;5.296;2023-02-28T09:13:51;9.75;;;4.05;;
68234;SDS011;55052;52.056;5.296;2023-02-28T09:16:18;6.38;;;3.55;;
68234;SDS011;55052;52.056;5.296;2023-02-28T09:18:45;6.30;;;3.17;;
68234;SDS011;55052;52.056;5.296;2023-02-28T09:21:13;6.68;;;3.38;;
68234;SDS011;55052;52.056;5.296;2023-02-28T09:23:45;6.33;;;3.30;;
68234;SDS011;55052;52.056;5.296;2023-02-28T09:26:14;6.45;;;3.40;;
68234;SDS011;55052;52.056;5.296;2023-02-28T09:28:46;7.72;;;3.53;;
68234;SDS011;55052;52.056;5.296;2023-02-28T09:31:14;6.07;;;3.20;;
68234;SDS011;55052;52.056;5.296;2023-02-28T09:33:43;6.50;;;3.10;;
68234;SDS011;55052;52.056;5.296;2023-02-28T09:36:09;4.97;;;3.10;;
68234;SDS011;55052;52.056;5.296;2023-02-28T09:38:36;5.00;;;2.70;;
68234;SDS011;55052;52.056;5.296;2023-02-28T09:41:08;3.95;;;2.53;;
68234;SDS011;55052;52.056;5.296;2023-02-28T09:43:40;3.20;;;2.40;;
68234;SDS011;55052;52.056;5.296;2023-02-28T09:48:51;4.50;;;2.00;;
68234;SDS011;55052;52.056;5.296;2023-02-28T09:54:08;3.78;;;2.20;;
68234;SDS011;55052;52.056;5.296;2023-02-28T09:56:46;6.80;;;5.85;;
68234;SDS011;55052;52.056;5.296;2023-02-28T10:02:17;4.28;;;2.40;;
68234;SDS011;55052;52.056;5.296;2023-02-28T10:05:21;5.22;;;2.15;;
68234;SDS011;55052;52.056;5.296;2023-02-28T10:10:40;4.93;;;2.65;;
68234;SDS011;55052;52.056;5.296;2023-02-28T10:16:18;4.40;;;2.70;;
68234;SDS011;55052;52.056;5.296;2023-02-28T10:19:02;6.22;;;3.60;;
68234;SDS011;55052;52.056;5.296;2023-02-28T10:21:43;4.95;;;2.65;;
68234;SDS011;55052;52.056;5.296;2023-02-28T10:24:19;5.22;;;2.40;;
68234;SDS011;55052;52.056;5.296;2023-02-28T10:26:56;3.20;;;2.10;;
68234;SDS011;55052;52.056;5.296;2023-02-28T10:29:27;4.15;;;2.30;;
68234;SDS011;55052;52.056;5.296;2023-02-28T10:31:58;5.80;;;2.63;;
68234;SDS011;55052;52.056;5.296;2023-02-28T10:36:56;6.30;;;3.40;;
68234;SDS011;55052;52.056;5.296;2023-02-28T10:39:34;3.38;;;2.08;;
68234;SDS011;55052;52.056;5.296;2023-02-28T10:42:27;3.47;;;2.30;;
68234;SDS011;55052;52.056;5.296;2023-02-28T10:45:10;6.18;;;2.60;;
68234;SDS011;55052;52.056;5.296;2023-02-28T10:48:01;3.78;;;2.38;;
68234;SDS011;55052;52.056;5.296;2023-02-28T11:01:56;4.75;;;2.33;;
68234;SDS011;55052;52.056;5.296;2023-02-28T11:06:59;5.60;;;3.72;;
68234;SDS011;55052;52.056;5.296;2023-02-28T11:09:52;6.13;;;2.53;;
68234;SDS011;55052;52.056;5.296;2023-02-28T11:12:28;4.28;;;2.30;;
68234;SDS011;55052;52.056;5.296;2023-02-28T11:15:14;4.47;;;2.30;;
68234;SDS011;55052;52.056;5.296;2023-02-28T11:17:45;5.30;;;2.90;;
68234;SDS011;55052;52.056;5.296;2023-02-28T11:20:25;4.38;;;2.45;;
68234;SDS011;55052;52.056;5.296;2023-02-28T11:22:54;4.07;;;2.60;;
68234;SDS011;55052;52.056;5.296;2023-02-28T11:25:32;4.15;;;2.67;;
68234;SDS011;55052;52.056;5.296;2023-02-28T11:28:04;4.20;;;2.50;;
68234;SDS011;55052;52.056;5.296;2023-02-28T11:30:39;3.42;;;2.30;;
68234;SDS011;55052;52.056;5.296;2023-02-28T11:33:19;4.60;;;2.35;;
68234;SDS011;55052;52.056;5.296;2023-02-28T11:36:10;4.60;;;2.65;;
68234;SDS011;55052;52.056;5.296;2023-02-28T11:38:40;4.93;;;2.65;;
68234;SDS011;55052;52.056;5.296;2023-02-28T11:51:59;4.80;;;2.30;;
68234;SDS011;55052;52.056;5.296;2023-02-28T11:57:31;3.72;;;2.38;;
68234;SDS011;55052;52.056;5.296;2023-02-28T12:00:06;4.60;;;2.50;;
68234;SDS011;55052;52.056;5.296;2023-02-28T12:08:47;3.33;;;2.13;;
68234;SDS011;55052;52.056;5.296;2023-02-28T12:20:18;3.83;;;2.30;;
68234;SDS011;55052;52.056;5.296;2023-02-28T12:26:02;4.13;;;3.05;;
68234;SDS011;55052;52.056;5.296;2023-02-28T12:28:48;5.13;;;2.40;;
68234;SDS011;55052;52.056;5.296;2023-02-28T12:31:21;3.67;;;2.25;;
68234;SDS011;55052;52.056;5.296;2023-02-28T12:33:51;4.15;;;2.28;;
68234;SDS011;55052;52.056;5.296;2023-02-28T12:36:22;3.97;;;2.30;;
68234;SDS011;55052;52.056;5.296;2023-02-28T12:44:18;6.15;;;3.00;;
68234;SDS011;55052;52.056;5.296;2023-02-28T12:47:05;5.35;;;2.38;;
68234;SDS011;55052;52.056;5.296;2023-02-28T12:49:52;5.10;;;2.15;;
68234;SDS011;55052;52.056;5.296;2023-02-28T12:52:26;3.60;;;2.30;;
68234;SDS011;55052;52.056;5.296;2023-02-28T12:55:19;5.03;;;2.45;;
68234;SDS011;55052;52.056;5.296;2023-02-28T12:57:49;5.00;;;2.35;;
68234;SDS011;55052;52.056;5.296;2023-02-28T13:00:19;9.05;;;3.00;;
68234;SDS011;55052;52.056;5.296;2023-02-28T13:11:47;4.50;;;2.30;;
68234;SDS011;55052;52.056;5.296;2023-02-28T13:14:30;3.60;;;2.20;;
68234;SDS011;55052;52.056;5.296;2023-02-28T13:19:42;4.97;;;2.95;;
68234;SDS011;55052;52.056;5.296;2023-02-28T13:27:49;5.18;;;2.40;;
68234;SDS011;55052;52.056;5.296;2023-02-28T13:38:41;3.97;;;2.45;;
68234;SDS011;55052;52.056;5.296;2023-02-28T13:49:30;4.65;;;2.70;;
68234;SDS011;55052;52.056;5.296;2023-02-28T13:55:21;7.93;;;3.08;;
68234;SDS011;55052;52.056;5.296;2023-02-28T13:58:14;5.63;;;2.40;;
68234;SDS011;55052;52.056;5.296;2023-02-28T14:01:43;3.83;;;2.40;;
68234;SDS011;55052;52.056;5.296;2023-02-28T14:06:52;4.38;;;2.60;;
68234;SDS011;55052;52.056;5.296;2023-02-28T14:09:34;5.15;;;2.80;;
68234;SDS011;55052;52.056;5.296;2023-02-28T14:16:08;3.63;;;2.30;;
68234;SDS011;55052;52.056;5.296;2023-02-28T14:18:15;4.78;;;2.75;;
68234;SDS011;55052;52.056;5.296;2023-02-28T14:20:54;4.18;;;2.60;;
68234;SDS011;55052;52.056;5.296;2023-02-28T14:26:25;4.75;;;2.67;;
68234;SDS011;55052;52.056;5.296;2023-02-28T14:29:40;4.25;;;2.70;;
68234;SDS011;55052;52.056;5.296;2023-02-28T14:38:04;5.90;;;2.45;;
68234;SDS011;55052;52.056;5.296;2023-02-28T14:40:33;4.53;;;2.53;;
68234;SDS011;55052;52.056;5.296;2023-02-28T14:43:02;5.78;;;2.55;;
68234;SDS011;55052;52.056;5.296;2023-02-28T14:45:32;4.93;;;2.67;;
68234;SDS011;55052;52.056;5.296;2023-02-28T14:48:02;5.28;;;2.72;;
68234;SDS011;55052;52.056;5.296;2023-02-28T14:50:36;5.35;;;2.65;;
68234;SDS011;55052;52.056;5.296;2023-02-28T14:53:03;5.20;;;3.60;;
68234;SDS011;55052;52.056;5.296;2023-02-28T14:55:43;4.47;;;2.60;;
68234;SDS011;55052;52.056;5.296;2023-02-28T15:00:48;3.90;;;2.40;;
68234;SDS011;55052;52.056;5.296;2023-02-28T15:03:21;4.65;;;2.80;;
68234;SDS011;55052;52.056;5.296;2023-02-28T15:05:57;6.10;;;3.25;;
68234;SDS011;55052;52.056;5.296;2023-02-28T15:08:29;4.93;;;3.10;;
68234;SDS011;55052;52.056;5.296;2023-02-28T15:11:02;4.35;;;2.33;;
68234;SDS011;55052;52.056;5.296;2023-02-28T15:19:18;4.78;;;2.58;;
68234;SDS011;55052;52.056;5.296;2023-02-28T15:21:49;3.30;;;2.13;;
68234;SDS011;55052;52.056;5.296;2023-02-28T15:24:38;4.20;;;2.40;;
68234;SDS011;55052;52.056;5.296;2023-02-28T15:27:25;3.40;;;2.30;;
68234;SDS011;55052;52.056;5.296;2023-02-28T15:29:57;4.80;;;2.72;;
68234;SDS011;55052;52.056;5.296;2023-02-28T15:32:36;4.63;;;2.45;;
68234;SDS011;55052;52.056;5.296;2023-02-28T15:35:19;4.07;;;2.47;;
68234;SDS011;55052;52.056;5.296;2023-02-28T15:37:47;4.05;;;2.40;;
68234;SDS011;55052;52.056;5.296;2023-02-28T15:40:23;4.75;;;2.45;;
68234;SDS011;55052;52.056;5.296;2023-02-28T15:43:15;6.28;;;2.53;;
68234;SDS011;55052;52.056;5.296;2023-02-28T15:48:33;5.20;;;2.70;;
68234;SDS011;55052;52.056;5.296;2023-02-28T15:53:57;5.38;;;3.30;;
68234;SDS011;55052;52.056;5.296;2023-02-28T15:56:33;4.60;;;2.50;;
68234;SDS011;55052;52.056;5.296;2023-02-28T15:59:07;4.90;;;2.78;;
68234;SDS011;55052;52.056;5.296;2023-02-28T16:01:39;3.90;;;2.42;;
68234;SDS011;55052;52.056;5.296;2023-02-28T16:04:13;4.55;;;2.47;;
68234;SDS011;55052;52.056;5.296;2023-02-28T16:06:43;3.28;;;2.30;;
68234;SDS011;55052;52.056;5.296;2023-02-28T16:09:26;6.13;;;2.78;;
68234;SDS011;55052;52.056;5.296;2023-02-28T16:11:55;4.38;;;2.50;;
68234;SDS011;55052;52.056;5.296;2023-02-28T16:14:27;6.00;;;2.47;;
68234;SDS011;55052;52.056;5.296;2023-02-28T16:17:03;3.40;;;2.28;;
68234;SDS011;55052;52.056;5.296;2023-02-28T16:19:32;5.25;;;3.70;;
68234;SDS011;55052;52.056;5.296;2023-02-28T16:22:00;6.57;;;3.13;;
68234;SDS011;55052;52.056;5.296;2023-02-28T16:24:27;4.20;;;2.28;;
68234;SDS011;55052;52.056;5.296;2023-02-28T16:26:54;5.18;;;2.53;;
68234;SDS011;55052;52.056;5.296;2023-02-28T16:29:27;5.32;;;2.80;;
68234;SDS011;55052;52.056;5.296;2023-02-28T16:31:57;4.28;;;2.53;;
68234;SDS011;55052;52.056;5.296;2023-02-28T16:34:24;3.55;;;2.40;;
68234;SDS011;55052;52.056;5.296;2023-02-28T16:36:51;3.60;;;2.20;;
68234;SDS011;55052;52.056;5.296;2023-02-28T16:39:19;4.47;;;2.40;;
68234;SDS011;55052;52.056;5.296;2023-02-28T16:41:48;4.35;;;2.53;;
68234;SDS011;55052;52.056;5.296;2023-02-28T16:44:37;5.85;;;2.30;;
68234;SDS011;55052;52.056;5.296;2023-02-28T16:47:04;7.03;;;2.50;;
68234;SDS011;55052;52.056;5.296;2023-02-28T16:49:31;6.07;;;2.40;;
68234;SDS011;55052;52.056;5.296;2023-02-28T16:51:57;4.90;;;2.20;;
68234;SDS011;55052;52.056;5.296;2023-02-28T16:54:24;4.63;;;2.35;;
68234;SDS011;55052;52.056;5.296;2023-02-28T16:56:51;5.38;;;2.92;;
68234;SDS011;55052;52.056;5.296;2023-02-28T16:59:19;6.03;;;2.80;;
68234;SDS011;55052;52.056;5.296;2023-02-28T17:01:50;4.45;;;2.50;;
68234;SDS011;55052;52.056;5.296;2023-02-28T17:04:18;3.88;;;2.33;;
68234;SDS011;55052;52.056;5.296;2023-02-28T17:06:45;3.75;;;2.20;;
68234;SDS011;55052;52.056;5.296;2023-02-28T17:09:22;6.88;;;2.85;;
68234;SDS011;55052;52.056;5.296;2023-02-28T17:12:07;5.05;;;2.60;;
68234;SDS011;55052;52.056;5.296;2023-02-28T17:14:34;5.97;;;3.60;;
68234;SDS011;55052;52.056;5.296;2023-02-28T17:17:01;5.45;;;3.28;;
68234;SDS011;55052;52.056;5.296;2023-02-28T17:19:28;6.68;;;3.75;;
68234;SDS011;55052;52.056;5.296;2023-02-28T17:21:54;4.78;;;3.17;;
68234;SDS011;55052;52.056;5.296;2023-02-28T17:24:21;6.30;;;3.30;;
68234;SDS011;55052;52.056;5.296;2023-02-28T17:26:56;5.25;;;3.28;;
68234;SDS011;55052;52.056;5.296;2023-02-28T17:29:23;5.40;;;3.17;;
68234;SDS011;55052;52.056;5.296;2023-02-28T17:31:50;6.88;;;3.05;;
68234;SDS011;55052;52.056;5.296;2023-02-28T17:34:17;8.10;;;3.80;;
68234;SDS011;55052;52.056;5.296;2023-02-28T17:36:46;8.68;;;3.92;;
68234;SDS011;55052;52.056;5.296;2023-02-28T17:39:14;5.88;;;3.30;;
68234;SDS011;55052;52.056;5.296;2023-02-28T17:41:45;5.50;;;3.13;;
68234;SDS011;55052;52.056;5.296;2023-02-28T17:44:12;8.07;;;4.80;;
68234;SDS011;55052;52.056;5.296;2023-02-28T17:46:39;7.63;;;3.90;;
68234;SDS011;55052;52.056;5.296;2023-02-28T17:49:08;5.05;;;3.50;;
68234;SDS011;55052;52.056;5.296;2023-02-28T17:51:35;6.85;;;3.38;;
68234;SDS011;55052;52.056;5.296;2023-02-28T17:54:02;5.28;;;2.90;;
68234;SDS011;55052;52.056;5.296;2023-02-28T17:56:29;5.75;;;2.60;;
68234;SDS011;55052;52.056;5.296;2023-02-28T17:58:56;4.93;;;2.50;;
68234;SDS011;55052;52.056;5.296;2023-02-28T18:01:23;6.45;;;4.00;;
68234;SDS011;55052;52.056;5.296;2023-02-28T18:03:54;6.47;;;4.15;;